createdAt,value
2023-01-19T00:00:41.599Z,100.00
2023-01-19T00:03:24.507Z,100.00
2023-01-19T00:05:52.133Z,100.00
2023-01-19T00:08:18.877Z,100.00
2023-01-19T00:10:50.833Z,100.00
2023-01-19T00:13:17.751Z,100.00
2023-01-19T00:15:44.949Z,100.00
2023-01-19T00:18:12.020Z,100.00
2023-01-19T00:20:40.115Z,100.00
2023-01-19T00:23:07.725Z,100.00
2023-01-19T00:25:35.195Z,100.00
2023-01-19T00:28:02.128Z,100.00
2023-01-19T00:30:29.910Z,100.00
2023-01-19T00:32:56.840Z,100.00
2023-01-19T00:35:23.703Z,100.00
2023-01-19T00:37:51.139Z,100.00
2023-01-19T00:40:17.994Z,100.00
2023-01-19T00:42:45.445Z,100.00
2023-01-19T00:45:18.101Z,100.00
2023-01-19T00:47:45.865Z,100.00
2023-01-19T00:50:16.322Z,100.00
2023-01-19T00:52:44.411Z,100.00
2023-01-19T00:55:13.173Z,100.00
2023-01-19T00:57:41.145Z,100.00
2023-01-19T01:00:14.649Z,100.00
2023-01-19T01:02:43.362Z,100.00
2023-01-19T01:05:11.517Z,100.00
2023-01-19T01:07:40.907Z,100.00
2023-01-19T01:10:14.508Z,100.00
2023-01-19T01:12:57.623Z,100.00
2023-01-19T01:15:29.392Z,100.00
2023-01-19T01:17:56.235Z,100.00
2023-01-19T01:20:27.201Z,100.00
2023-01-19T01:22:55.588Z,100.00
2023-01-19T01:25:24.569Z,100.00
2023-01-19T01:27:52.312Z,100.00
2023-01-19T01:30:20.074Z,100.00
2023-01-19T01:32:46.956Z,100.00
2023-01-19T01:35:14.616Z,100.00
2023-01-19T01:37:45.033Z,100.00
2023-01-19T01:40:17.174Z,100.00
2023-01-19T01:42:44.939Z,100.00
2023-01-19T01:45:36.809Z,100.00
2023-01-19T01:48:18.885Z,100.00
2023-01-19T01:51:13.260Z,100.00
2023-01-19T01:53:44.840Z,100.00
2023-01-19T01:56:14.834Z,100.00
2023-01-19T01:58:43.722Z,100.00
2023-01-19T02:01:29.475Z,100.00
2023-01-19T02:03:58.022Z,100.00
2023-01-19T02:06:25.961Z,100.00
2023-01-19T02:09:25.364Z,100.00
2023-01-19T02:12:11.799Z,100.00
2023-01-19T02:14:38.520Z,100.00
2023-01-19T02:17:06.323Z,100.00
2023-01-19T02:19:44.509Z,100.00
2023-01-19T02:22:24.240Z,100.00
2023-01-19T02:24:51.685Z,100.00
2023-01-19T02:27:19.553Z,100.00
2023-01-19T02:29:46.908Z,100.00
2023-01-19T02:32:14.073Z,100.00
2023-01-19T02:34:41.323Z,100.00
2023-01-19T02:37:14.410Z,100.00
2023-01-19T02:39:46.060Z,100.00
2023-01-19T02:42:18.012Z,100.00
2023-01-19T02:44:48.858Z,100.00
2023-01-19T02:47:16.219Z,100.00
2023-01-19T02:49:43.260Z,100.00
2023-01-19T02:52:17.479Z,100.00
2023-01-19T02:55:21.629Z,100.00
2023-01-19T02:58:10.349Z,100.00
2023-01-19T03:00:51.847Z,100.00
2023-01-19T03:03:32.347Z,100.00
2023-01-19T03:06:27.407Z,100.00
2023-01-19T03:09:53.054Z,100.00
2023-01-19T03:13:04.415Z,100.00
2023-01-19T03:15:41.977Z,100.00
2023-01-19T03:18:11.891Z,100.00
2023-01-19T03:20:39.997Z,100.00
2023-01-19T03:23:10.933Z,100.00
2023-01-19T03:25:41.959Z,100.00
2023-01-19T03:28:09.601Z,100.00
2023-01-19T03:30:46.056Z,100.00
2023-01-19T03:33:20.882Z,100.00
2023-01-19T03:35:52.589Z,100.00
2023-01-19T03:38:25.787Z,100.00
2023-01-19T03:41:01.646Z,100.00
2023-01-19T03:43:31.146Z,100.00
2023-01-19T03:45:58.960Z,100.00
2023-01-19T03:48:26.213Z,100.00
2023-01-19T03:50:54.745Z,100.00
2023-01-19T03:53:24.571Z,100.00
2023-01-19T03:55:53.862Z,100.00
2023-01-19T03:58:21.829Z,100.00
2023-01-19T04:00:48.830Z,100.00
2023-01-19T04:03:17.563Z,100.00
2023-01-19T04:05:44.737Z,100.00
2023-01-19T04:08:12.580Z,100.00
2023-01-19T04:10:40.038Z,100.00
2023-01-19T04:13:06.987Z,100.00
2023-01-19T04:15:34.083Z,100.00
2023-01-19T04:18:01.089Z,100.00
2023-01-19T04:20:29.054Z,100.00
2023-01-19T04:23:00.428Z,100.00
2023-01-19T04:25:28.381Z,100.00
2023-01-19T04:27:57.717Z,100.00
2023-01-19T04:30:24.839Z,100.00
2023-01-19T04:32:53.196Z,100.00
2023-01-19T04:35:21.783Z,100.00
2023-01-19T04:37:48.830Z,100.00
2023-01-19T04:40:15.982Z,100.00
2023-01-19T04:42:44.536Z,100.00
2023-01-19T04:45:13.050Z,100.00
2023-01-19T04:47:42.156Z,100.00
2023-01-19T04:50:10.815Z,100.00
2023-01-19T04:52:37.701Z,100.00
2023-01-19T04:55:06.055Z,100.00
2023-01-19T04:57:33.096Z,100.00
2023-01-19T05:00:00.758Z,100.00
2023-01-19T05:02:27.600Z,100.00
2023-01-19T05:04:54.651Z,100.00
2023-01-19T05:07:21.528Z,100.00
2023-01-19T05:09:48.556Z,100.00
2023-01-19T05:12:16.005Z,100.00
2023-01-19T05:14:43.274Z,100.00
2023-01-19T05:17:10.302Z,100.00
2023-01-19T05:19:37.346Z,100.00
2023-01-19T05:22:05.732Z,100.00
2023-01-19T05:24:33.082Z,100.00
2023-01-19T05:27:00.644Z,100.00
2023-01-19T05:29:27.488Z,100.00
2023-01-19T05:31:54.294Z,100.00
2023-01-19T05:34:21.274Z,100.00
2023-01-19T05:36:48.218Z,100.00
2023-01-19T05:39:15.369Z,100.00
2023-01-19T05:41:45.684Z,100.00
2023-01-19T05:44:13.255Z,100.00
2023-01-19T05:46:43.006Z,100.00
2023-01-19T05:49:12.367Z,100.00
2023-01-19T05:51:40.036Z,100.00
2023-01-19T05:54:08.294Z,100.00
2023-01-19T05:56:35.266Z,100.00
2023-01-19T05:59:02.043Z,100.00
2023-01-19T06:01:29.244Z,100.00
2023-01-19T06:03:56.399Z,100.00
2023-01-19T06:06:23.341Z,100.00
2023-01-19T06:08:50.397Z,100.00
2023-01-19T06:11:17.440Z,100.00
2023-01-19T06:13:44.324Z,100.00
2023-01-19T06:16:11.356Z,100.00
2023-01-19T06:18:38.116Z,100.00
2023-01-19T06:21:06.806Z,100.00
2023-01-19T06:23:35.039Z,100.00
2023-01-19T06:26:02.487Z,100.00
2023-01-19T06:28:30.089Z,100.00
2023-01-19T06:30:57.388Z,100.00
2023-01-19T06:33:25.696Z,100.00
2023-01-19T06:35:53.037Z,100.00
2023-01-19T06:38:20.204Z,100.00
2023-01-19T06:41:02.300Z,100.00
2023-01-19T06:43:30.908Z,100.00
2023-01-19T06:45:59.943Z,100.00
2023-01-19T06:48:27.492Z,100.00
2023-01-19T06:50:54.656Z,100.00
2023-01-19T06:53:22.650Z,100.00
2023-01-19T06:55:50.542Z,100.00
2023-01-19T06:58:17.871Z,100.00
2023-01-19T07:00:44.947Z,100.00
2023-01-19T07:03:20.751Z,100.00
2023-01-19T07:05:52.159Z,100.00
2023-01-19T07:08:19.643Z,100.00
2023-01-19T07:11:27.172Z,100.00
2023-01-19T07:13:35.381Z,100.00
2023-01-19T07:16:08.370Z,100.00
2023-01-19T07:18:37.568Z,100.00
2023-01-19T07:21:05.452Z,100.00
2023-01-19T07:23:33.558Z,100.00
2023-01-19T07:26:04.241Z,100.00
2023-01-19T07:28:32.373Z,100.00
2023-01-19T07:31:00.304Z,100.00
2023-01-19T07:33:27.946Z,100.00
2023-01-19T07:35:54.889Z,100.00
2023-01-19T07:38:22.245Z,100.00
2023-01-19T07:40:49.292Z,100.00
2023-01-19T07:43:16.347Z,100.00
2023-01-19T07:45:44.542Z,100.00
2023-01-19T07:48:11.362Z,100.00
2023-01-19T07:50:38.514Z,100.00
2023-01-19T07:53:06.887Z,100.00
2023-01-19T07:55:34.041Z,100.00
2023-01-19T07:58:01.910Z,100.00
2023-01-19T08:00:29.158Z,100.00
2023-01-19T08:03:00.299Z,100.00
2023-01-19T08:05:31.138Z,100.00
2023-01-19T08:07:58.802Z,100.00
2023-01-19T08:10:27.840Z,100.00
2023-01-19T08:12:56.390Z,100.00
2023-01-19T08:15:24.621Z,100.00
2023-01-19T08:18:11.065Z,100.00
2023-01-19T08:20:38.412Z,100.00
2023-01-19T08:23:05.364Z,100.00
2023-01-19T08:25:33.326Z,99.82
2023-01-19T08:28:00.817Z,96.85
2023-01-19T08:30:28.252Z,94.92
2023-01-19T08:33:03.469Z,94.51
2023-01-19T08:35:31.658Z,93.76
2023-01-19T08:38:01.130Z,92.60
2023-01-19T08:40:29.188Z,90.47
2023-01-19T08:43:08.936Z,90.42
2023-01-19T08:45:47.611Z,88.86
2023-01-19T08:48:16.787Z,88.05
2023-01-19T08:50:47.238Z,86.45
2023-01-19T08:53:16.146Z,83.14
2023-01-19T08:55:43.153Z,82.47
2023-01-19T08:58:10.166Z,81.19
2023-01-19T09:00:37.459Z,79.90
2023-01-19T09:03:09.179Z,80.17
2023-01-19T09:05:38.172Z,80.00
2023-01-19T09:08:07.866Z,79.23
2023-01-19T09:10:37.191Z,76.34
2023-01-19T09:13:07.593Z,76.38
2023-01-19T09:15:37.031Z,74.52
2023-01-19T09:18:06.592Z,74.56
2023-01-19T09:20:38.015Z,74.99
2023-01-19T09:23:05.779Z,72.92
2023-01-19T09:25:32.823Z,72.08
2023-01-19T09:28:00.491Z,72.20
2023-01-19T09:30:28.976Z,70.56
2023-01-19T09:33:01.497Z,69.96
2023-01-19T09:35:28.341Z,68.22
2023-01-19T09:37:55.443Z,68.18
2023-01-19T09:40:22.234Z,67.93
2023-01-19T09:42:52.101Z,67.53
2023-01-19T09:45:39.188Z,68.30
2023-01-19T09:48:22.368Z,67.53
2023-01-19T09:50:49.830Z,67.35
2023-01-19T09:53:46.986Z,66.99
2023-01-19T09:56:17.049Z,65.90
2023-01-19T09:58:46.785Z,65.42
2023-01-19T10:01:39.975Z,65.23
2023-01-19T10:04:34.499Z,65.05
2023-01-19T10:07:31.229Z,65.64
2023-01-19T10:10:03.861Z,64.00
2023-01-19T10:12:43.202Z,64.10
2023-01-19T10:15:48.785Z,63.27
2023-01-19T10:18:36.423Z,62.18
2023-01-19T10:21:11.399Z,60.82
2023-01-19T10:24:05.919Z,60.70
2023-01-19T10:26:41.810Z,58.38
2023-01-19T10:29:17.485Z,59.07
2023-01-19T10:31:46.079Z,57.12
2023-01-19T10:34:23.017Z,56.29
2023-01-19T10:36:58.385Z,54.26
2023-01-19T10:39:25.298Z,54.93
2023-01-19T10:41:53.624Z,54.36
2023-01-19T10:44:26.332Z,54.11
2023-01-19T10:46:58.176Z,53.72
2023-01-19T10:49:24.933Z,53.72
2023-01-19T10:51:52.546Z,53.58
2023-01-19T10:54:21.323Z,52.94
2023-01-19T10:56:57.549Z,52.74
2023-01-19T10:59:43.575Z,52.83
2023-01-19T11:02:25.884Z,53.35
2023-01-19T11:04:59.068Z,52.78
2023-01-19T11:07:25.753Z,53.35
2023-01-19T11:10:13.031Z,54.15
2023-01-19T11:12:42.229Z,53.11
2023-01-19T11:15:21.642Z,51.98
2023-01-19T11:17:49.072Z,51.50
2023-01-19T11:20:24.707Z,50.72
2023-01-19T11:23:28.640Z,51.07
2023-01-19T11:26:19.803Z,51.65
2023-01-19T11:28:50.798Z,51.77
2023-01-19T11:31:20.018Z,52.21
2023-01-19T11:33:47.337Z,52.19
2023-01-19T11:36:18.581Z,52.02
2023-01-19T11:38:48.960Z,52.14
2023-01-19T11:41:42.250Z,50.40
2023-01-19T11:44:23.157Z,49.84
2023-01-19T11:46:55.309Z,49.17
2023-01-19T11:49:55.750Z,49.67
2023-01-19T11:52:47.390Z,49.03
2023-01-19T11:55:40.330Z,49.25
2023-01-19T11:58:14.802Z,49.23
2023-01-19T12:01:15.714Z,50.69
2023-01-19T12:03:48.468Z,51.11
2023-01-19T12:06:20.063Z,51.84
2023-01-19T12:08:55.881Z,50.92
2023-01-19T12:11:29.649Z,51.07
2023-01-19T12:13:57.118Z,51.01
2023-01-19T12:16:28.733Z,51.76
2023-01-19T12:19:03.506Z,51.47
2023-01-19T12:21:30.278Z,51.65
2023-01-19T12:24:22.271Z,51.93
2023-01-19T12:26:56.722Z,52.50
2023-01-19T12:29:35.094Z,52.46
2023-01-19T12:32:13.839Z,52.32
2023-01-19T12:34:46.237Z,51.89
2023-01-19T12:37:37.293Z,51.71
2023-01-19T12:40:28.814Z,51.57
2023-01-19T12:42:57.039Z,52.20
2023-01-19T12:45:28.904Z,51.52
2023-01-19T12:47:56.176Z,51.43
2023-01-19T12:50:29.085Z,51.22
2023-01-19T12:53:01.483Z,51.79
2023-01-19T12:55:30.612Z,51.35
2023-01-19T12:58:09.639Z,51.47
2023-01-19T13:00:46.124Z,51.83
2023-01-19T13:03:15.613Z,51.74
2023-01-19T13:05:42.566Z,51.21
2023-01-19T13:08:09.433Z,51.61
2023-01-19T13:11:10.923Z,50.63
2023-01-19T13:13:39.673Z,50.17
2023-01-19T13:16:19.101Z,49.67
2023-01-19T13:18:47.356Z,49.67
2023-01-19T13:21:29.190Z,50.08
2023-01-19T13:23:58.369Z,50.03
2023-01-19T13:26:28.607Z,50.77
2023-01-19T13:29:17.435Z,51.17
2023-01-19T13:31:48.353Z,50.70
2023-01-19T13:34:21.691Z,50.77
2023-01-19T13:36:53.997Z,50.35
2023-01-19T13:39:28.090Z,50.76
2023-01-19T13:41:59.415Z,50.90
2023-01-19T13:44:31.740Z,51.19
2023-01-19T13:46:59.952Z,51.17
2023-01-19T13:49:32.729Z,51.33
2023-01-19T13:52:19.131Z,52.07
2023-01-19T13:54:59.772Z,52.55
2023-01-19T13:57:40.874Z,52.69
2023-01-19T14:00:13.766Z,53.46
2023-01-19T14:02:50.430Z,54.17
2023-01-19T14:05:25.697Z,54.15
2023-01-19T14:08:07.511Z,54.29
2023-01-19T14:10:36.643Z,54.24
2023-01-19T14:13:15.803Z,54.35
2023-01-19T14:15:43.931Z,54.93
2023-01-19T14:18:13.683Z,55.18
2023-01-19T14:20:41.657Z,55.41
2023-01-19T14:23:51.997Z,55.88
2023-01-19T14:26:41.702Z,56.35
2023-01-19T14:29:32.788Z,56.74
2023-01-19T14:31:59.959Z,57.16
2023-01-19T14:34:41.438Z,57.29
2023-01-19T14:37:21.808Z,57.57
2023-01-19T14:39:50.081Z,57.95
2023-01-19T14:42:23.068Z,58.20
2023-01-19T14:44:52.925Z,58.64
2023-01-19T14:47:28.945Z,58.61
2023-01-19T14:50:00.507Z,58.81
2023-01-19T14:52:32.762Z,59.05
2023-01-19T14:55:03.284Z,59.27
2023-01-19T14:57:30.239Z,59.38
2023-01-19T14:59:56.882Z,59.84
2023-01-19T15:02:26.512Z,60.19
2023-01-19T15:04:54.766Z,60.32
2023-01-19T15:07:24.577Z,60.42
2023-01-19T15:09:51.998Z,60.76
2023-01-19T15:12:20.168Z,60.85
2023-01-19T15:14:47.456Z,61.09
2023-01-19T15:17:24.951Z,61.19
2023-01-19T15:19:54.170Z,61.37
2023-01-19T15:22:26.172Z,61.77
2023-01-19T15:24:56.820Z,62.21
2023-01-19T15:27:23.738Z,62.69
2023-01-19T15:29:50.480Z,63.12
2023-01-19T15:32:17.451Z,63.59
2023-01-19T15:34:44.254Z,63.80
2023-01-19T15:37:11.061Z,64.07
2023-01-19T15:39:39.340Z,64.27
2023-01-19T15:42:14.180Z,64.53
2023-01-19T15:44:40.936Z,64.65
2023-01-19T15:47:09.394Z,64.83
2023-01-19T15:49:36.441Z,64.96
2023-01-19T15:52:03.592Z,65.13
2023-01-19T15:54:30.434Z,65.33
2023-01-19T15:56:58.200Z,65.56
2023-01-19T15:59:25.245Z,65.92
2023-01-19T16:01:52.236Z,66.12
2023-01-19T16:04:19.347Z,66.25
2023-01-19T16:06:47.007Z,66.60
2023-01-19T16:09:17.945Z,66.87
2023-01-19T16:11:45.400Z,67.21
2023-01-19T16:14:12.141Z,67.49
2023-01-19T16:16:39.035Z,67.99
2023-01-19T16:19:06.137Z,68.35
2023-01-19T16:21:32.932Z,68.64
2023-01-19T16:24:00.337Z,68.57
2023-01-19T16:26:32.100Z,68.69
2023-01-19T16:29:10.420Z,69.10
2023-01-19T16:31:40.637Z,69.30
2023-01-19T16:34:08.715Z,69.70
2023-01-19T16:36:42.053Z,70.24
2023-01-19T16:39:12.731Z,70.41
2023-01-19T16:41:40.497Z,70.77
2023-01-19T16:44:11.022Z,71.38
2023-01-19T16:46:45.074Z,72.16
2023-01-19T16:49:18.045Z,72.67
2023-01-19T16:51:45.605Z,73.13
2023-01-19T16:54:14.241Z,73.50
2023-01-19T16:56:41.721Z,73.75
2023-01-19T16:59:13.143Z,73.82
2023-01-19T17:01:41.276Z,74.00
2023-01-19T17:04:08.307Z,74.09
2023-01-19T17:06:35.135Z,74.31
2023-01-19T17:09:02.290Z,74.39
2023-01-19T17:11:31.768Z,74.59
2023-01-19T17:14:01.406Z,74.62
2023-01-19T17:16:30.742Z,74.60
2023-01-19T17:19:00.922Z,74.90
2023-01-19T17:21:28.495Z,74.87
2023-01-19T17:23:56.766Z,74.98
2023-01-19T17:26:25.244Z,75.11
2023-01-19T17:28:58.231Z,74.98
2023-01-19T17:31:25.088Z,74.99
2023-01-19T17:33:51.823Z,75.12
2023-01-19T17:36:24.701Z,75.15
2023-01-19T17:38:52.964Z,75.32
2023-01-19T17:41:32.639Z,75.42
2023-01-19T17:44:00.878Z,75.51
2023-01-19T17:46:29.135Z,75.56
2023-01-19T17:48:58.574Z,75.68
2023-01-19T17:51:26.844Z,75.62
2023-01-19T17:53:54.817Z,75.62
2023-01-19T17:56:27.912Z,75.57
2023-01-19T17:58:56.121Z,75.59
2023-01-19T18:01:26.091Z,75.53
2023-01-19T18:03:54.014Z,75.73
2023-01-19T18:06:21.435Z,75.67
2023-01-19T18:08:49.092Z,75.94
2023-01-19T18:11:18.447Z,76.10
2023-01-19T18:13:47.900Z,76.41
2023-01-19T18:16:19.042Z,76.44
2023-01-19T18:18:46.100Z,76.65
2023-01-19T18:21:14.189Z,76.83
2023-01-19T18:23:45.614Z,77.06
2023-01-19T18:26:15.760Z,77.24
2023-01-19T18:28:43.094Z,77.65
2023-01-19T18:31:12.721Z,77.67
2023-01-19T18:33:40.866Z,77.80
2023-01-19T18:36:08.740Z,77.87
2023-01-19T18:38:37.509Z,77.98
2023-01-19T18:41:11.127Z,78.21
2023-01-19T18:43:39.610Z,78.36
2023-01-19T18:46:06.916Z,78.34
2023-01-19T18:48:34.930Z,78.51
2023-01-19T18:51:06.074Z,78.57
2023-01-19T18:53:33.022Z,78.74
2023-01-19T18:56:01.608Z,79.01
2023-01-19T18:58:31.073Z,79.30
2023-01-19T19:01:00.057Z,79.45
2023-01-19T19:03:28.608Z,79.98
2023-01-19T19:05:56.540Z,80.26
2023-01-19T19:08:23.631Z,79.94
2023-01-19T19:10:50.459Z,80.36
2023-01-19T19:13:21.181Z,80.30
2023-01-19T19:15:48.446Z,80.81
2023-01-19T19:18:15.788Z,80.97
2023-01-19T19:20:43.041Z,80.94
2023-01-19T19:23:11.323Z,81.23
2023-01-19T19:25:38.174Z,81.15
2023-01-19T19:28:05.795Z,82.29
2023-01-19T19:30:37.206Z,82.89
2023-01-19T19:33:04.437Z,83.81
2023-01-19T19:35:31.368Z,84.35
2023-01-19T19:37:58.524Z,85.20
2023-01-19T19:40:27.243Z,86.67
2023-01-19T19:42:54.219Z,87.37
2023-01-19T19:45:22.221Z,88.14
2023-01-19T19:47:50.405Z,87.88
2023-01-19T19:50:18.720Z,88.85
2023-01-19T19:52:45.724Z,89.28
2023-01-19T19:55:12.518Z,88.62
2023-01-19T19:57:39.408Z,89.28
2023-01-19T20:00:07.276Z,89.64
2023-01-19T20:02:37.211Z,88.91
2023-01-19T20:05:05.199Z,88.71
2023-01-19T20:07:32.348Z,88.73
2023-01-19T20:09:59.254Z,88.92
2023-01-19T20:12:26.795Z,89.96
2023-01-19T20:14:53.659Z,91.20
2023-01-19T20:17:24.190Z,90.42
2023-01-19T20:19:52.160Z,90.69
2023-01-19T20:22:19.160Z,90.91
2023-01-19T20:24:46.257Z,90.33
2023-01-19T20:27:12.992Z,90.22
2023-01-19T20:29:40.041Z,91.27
2023-01-19T20:32:07.502Z,90.55
2023-01-19T20:34:35.166Z,91.28
2023-01-19T20:37:04.188Z,91.36
2023-01-19T20:39:32.945Z,91.19
2023-01-19T20:42:01.126Z,90.93
2023-01-19T20:44:28.280Z,91.36
2023-01-19T20:46:56.251Z,92.18
2023-01-19T20:49:23.403Z,92.89
2023-01-19T20:51:51.375Z,92.69
2023-01-19T20:54:21.532Z,92.96
2023-01-19T20:56:48.734Z,93.84
2023-01-19T20:59:16.916Z,94.30
2023-01-19T21:01:44.616Z,94.41
2023-01-19T21:04:12.442Z,95.25
2023-01-19T21:06:40.515Z,95.04
2023-01-19T21:09:08.994Z,95.80
2023-01-19T21:11:37.923Z,95.73
2023-01-19T21:14:05.540Z,96.31
2023-01-19T21:16:34.058Z,96.52
2023-01-19T21:19:01.276Z,96.12
2023-01-19T21:21:31.126Z,95.92
2023-01-19T21:24:00.719Z,95.98
2023-01-19T21:26:29.670Z,96.04
2023-01-19T21:28:58.082Z,96.02
2023-01-19T21:31:27.726Z,96.22
2023-01-19T21:33:56.427Z,95.86
2023-01-19T21:36:24.229Z,96.10
2023-01-19T21:38:51.805Z,96.18
2023-01-19T21:41:19.493Z,95.73
2023-01-19T21:43:47.009Z,95.72
2023-01-19T21:46:22.466Z,95.53
2023-01-19T21:48:49.505Z,95.73
2023-01-19T21:51:16.153Z,95.20
2023-01-19T21:53:43.335Z,96.79
2023-01-19T21:56:11.198Z,96.50
2023-01-19T21:58:38.208Z,97.75
2023-01-19T22:01:06.360Z,97.86
2023-01-19T22:03:33.424Z,97.13
2023-01-19T22:06:08.390Z,98.19
2023-01-19T22:08:36.095Z,97.87
2023-01-19T22:11:15.274Z,97.09
2023-01-19T22:13:42.716Z,96.94
2023-01-19T22:16:11.592Z,97.16
2023-01-19T22:18:43.571Z,97.32
2023-01-19T22:21:15.969Z,96.89
2023-01-19T22:23:43.818Z,97.60
2023-01-19T22:26:11.289Z,97.39
2023-01-19T22:28:38.981Z,97.63
2023-01-19T22:31:10.951Z,97.98
2023-01-19T22:33:38.880Z,97.92
2023-01-19T22:36:14.910Z,97.66
2023-01-19T22:38:44.042Z,98.44
2023-01-19T22:41:24.076Z,98.37
2023-01-19T22:43:54.191Z,98.40
2023-01-19T22:46:24.022Z,98.72
2023-01-19T22:48:52.467Z,98.93
2023-01-19T22:51:20.876Z,99.24
2023-01-19T22:53:48.113Z,99.30
2023-01-19T22:56:21.930Z,99.67
2023-01-19T22:58:49.382Z,100.00
2023-01-19T23:01:19.273Z,100.00
2023-01-19T23:03:46.450Z,100.00
2023-01-19T23:06:16.156Z,100.00
2023-01-19T23:08:43.511Z,100.00
2023-01-19T23:11:40.971Z,100.00
2023-01-19T23:14:12.984Z,100.00
2023-01-19T23:16:39.890Z,100.00
2023-01-19T23:19:07.144Z,100.00
2023-01-19T23:21:34.184Z,100.00
2023-01-19T23:24:02.868Z,100.00
2023-01-19T23:26:30.974Z,100.00
2023-01-19T23:29:01.249Z,100.00
2023-01-19T23:31:31.077Z,100.00
2023-01-19T23:34:04.248Z,100.00
2023-01-19T23:36:33.361Z,100.00
2023-01-19T23:39:05.333Z,100.00
2023-01-19T23:41:36.174Z,100.00
2023-01-19T23:44:03.414Z,100.00
2023-01-19T23:46:30.803Z,100.00
2023-01-19T23:48:57.841Z,100.00
2023-01-19T23:51:27.966Z,100.00
2023-01-19T23:53:56.436Z,100.00
2023-01-19T23:56:29.011Z,100.00
2023-01-19T23:58:59.104Z,100.00
